map of NQY home
NQY - Airport
Location
City:  Newquay, Cornwall, England, United Kingdom
Name:Newquay Cornwall Airport
Old (Alt.):RAF St. Mawgan
ICAO:EGHQ
IATA:NQY

Details
Type:Airport (Aerodrome, Airfield)
Use:Public/Civil
Latitude:5026'27"N (50.440833)
Longitude:459'43"W (-4.995277)
Elevation:390 ft (119 m)
Variation:2.06W (WMM2015 magnetic declination)
0.15 annual change
Runways:1
Longest:9003 × 148 ft (2744 × 45 m), paved

Time
Time Zone:UTC+0 (DST+1)
Local Time:

Weather
METAR:EGHQ 201120Z 23016KT 9999 FEW013 BKN034 12/09 Q1018

Related Locations
Nearby:
Farthest:NZBA: 12056 mi / 19402 km
Balclutha, OTA, NZ

Find:

   beyond  
but within

Other Information
Maps:
NOTAMs:
Links:
Sources:

  
flag of United Kingdom
flag of England
flag of Cornwall
  

Airport Diagram

Airport diagram for NQY

Larger airport diagram (OBSOLETE) from NGA

Sectional Chart

Flight Planning
at skyvector.com

Satellite Image

Google Maps Satellite view

 

Copyright © 2004-2017 Karl L. Swartz. All rights reserved.
The Great Circle Mapper name and logo are trademarks of the Great Circle Mapper.
All other trademarks mentioned herein belong to their respective owners.
Please see credits for attibutions and further copyright information.

  Follow gcmap on Facebook Follow gcmap on Twitter Follow gcmap on Google+ GCmap on LinkedIn

hCard Microformat

Geo Microformat